Haddam, CT (06438)

2:04 PM EDT on July 23, 2016 (GMT -0400)
Cockaponsett | | Change Station

Elev 272 ft 41.49 °N, 72.53 °W | Updated 26 seconds ago

Partly Cloudy
Partly Cloudy
90.5 °F
Feels Like 91 °F
N
0.2
Wind Variable Wind from SSW
Gusts 2.5 mph

Today
High -- | Low -- °F
--% Chance of Precip.
Yesterday
High -- | Low -- °F
Precip. -- in
Pressure 29.82 in
Visibility 10.0 miles
Clouds Few 5500 ft
Few 7500 ft
Heat Index 91 °F
Dew Point 62 °F
Humidity 38%
Rainfall 0.00 in
Snow Depth Not available.
5:36 AM 8:15 PM
Waning Gibbous, 83% visible
METAR KSNC 231755Z AUTO 30010G18KT 10SM FEW055 FEW075 32/15 A2982 RMK AO2
Pressure 29.82 in
Visibility 10.0 miles
Clouds Few 5500 ft
Few 7500 ft
Heat Index 91 °F
Dew Point 62 °F
Humidity 38%
Rainfall 0.00 in
Snow Depth Not available.
5:36 AM 8:15 PM
Waning Gibbous, 83% visible
METAR KSNC 231755Z AUTO 30010G18KT 10SM FEW055 FEW075 32/15 A2982 RMK AO2

10-Day Weather Forecast

Almanac

Astronomy

Jul. 23, 2016 Rise Set
Actual Time
Civil Twilight
Nautical Twilight
Astronomical Twilight
Moon
Length of Visible Light
Length of Day
Tomorrow will be .
, % of the Moon is Illuminated

Today's Extremes

State Highs State Lows

Community

WunderPhotos

Upload Photos

1,926,878 photos uploaded!

WunderBlog® & News

Nearby

Air Quality

  Air Quality AQ Index Pollutant
Not available.

Snow Depth

Station Depth Elevation

Earthquake Activity

City Distance Mag. Time & Date
Minimum magnitude displayed is 2.5.

Coastal Water Temperatures

Place Temperature

Stations

Nearby Weather Stations

Station Location Temp. Windchill Dew Point Humidity Wind Precip. Elev Updated Type
                   

Watches & Warnings

There are currently no watches in effect.